createdAt,value
2023-04-02T00:00:21.316Z,93736.00
2023-04-02T00:01:21.358Z,93730.00
2023-04-02T00:02:21.403Z,93736.00
2023-04-02T00:03:21.507Z,93736.00
2023-04-02T00:04:21.368Z,93738.00
2023-04-02T00:05:21.372Z,93738.00
2023-04-02T00:06:21.378Z,93736.00
2023-04-02T00:07:21.410Z,93738.00
2023-04-02T00:08:21.392Z,93736.00
2023-04-02T00:09:21.412Z,93738.00
2023-04-02T00:10:22.313Z,93738.00
2023-04-02T00:11:21.443Z,93742.00
2023-04-02T00:12:21.427Z,93740.00
2023-04-02T00:13:21.432Z,93736.00
2023-04-02T00:14:21.443Z,93736.00
2023-04-02T00:15:21.428Z,93736.00
2023-04-02T00:16:21.446Z,93734.00
2023-04-02T00:17:21.429Z,93732.00
2023-04-02T00:18:21.496Z,93730.00
2023-04-02T00:19:21.416Z,93730.00
2023-04-02T00:20:21.410Z,93730.00
2023-04-02T00:21:21.420Z,93728.00
2023-04-02T00:22:21.451Z,93730.00
2023-04-02T00:23:21.455Z,93730.00
2023-04-02T00:24:21.436Z,93730.00
2023-04-02T00:25:21.449Z,93728.00
2023-04-02T00:26:21.458Z,93730.00
2023-04-02T00:27:21.470Z,93728.00
2023-04-02T00:28:21.455Z,93730.00
2023-04-02T00:29:21.452Z,93730.00
2023-04-02T00:30:21.453Z,93730.00
2023-04-02T00:31:21.476Z,93732.00
2023-04-02T00:32:21.519Z,93734.00
2023-04-02T00:33:21.461Z,93734.00
2023-04-02T00:34:21.477Z,93738.00
2023-04-02T00:35:21.457Z,93734.00
2023-04-02T00:36:21.497Z,93732.00
2023-04-02T00:37:21.471Z,93736.00
2023-04-02T00:38:21.472Z,93740.00
2023-04-02T00:39:21.448Z,93738.00
2023-04-02T00:40:21.461Z,93740.00
2023-04-02T00:41:21.445Z,93738.00
2023-04-02T00:42:21.459Z,93734.00
2023-04-02T00:43:21.455Z,93740.00
2023-04-02T00:44:21.484Z,93740.00
2023-04-02T00:45:21.455Z,93740.00
2023-04-02T00:46:21.545Z,93740.00
2023-04-02T00:47:21.442Z,93740.00
2023-04-02T00:48:21.526Z,93742.00
2023-04-02T00:49:21.454Z,93742.00
2023-04-02T00:50:21.492Z,93742.00
2023-04-02T00:51:21.441Z,93748.00
2023-04-02T00:52:21.477Z,93744.00
2023-04-02T00:53:21.454Z,93746.00
2023-04-02T00:54:21.430Z,93744.00
2023-04-02T00:55:21.453Z,93746.00
2023-04-02T00:56:21.457Z,93746.00
2023-04-02T00:57:21.499Z,93748.00
2023-04-02T00:58:21.460Z,93748.00
2023-04-02T00:59:21.437Z,93748.00
2023-04-02T01:00:21.471Z,93746.00
2023-04-02T01:01:21.537Z,93746.00
2023-04-02T01:02:21.479Z,93746.00
2023-04-02T01:03:21.544Z,93746.00
2023-04-02T01:04:21.452Z,93744.00
2023-04-02T01:05:21.471Z,93748.00
2023-04-02T01:06:21.492Z,93744.00
2023-04-02T01:07:21.470Z,93742.00
2023-04-02T01:08:21.505Z,93744.00
2023-04-02T01:09:21.477Z,93744.00
2023-04-02T01:10:21.509Z,93744.00
2023-04-02T01:11:21.453Z,93744.00
2023-04-02T01:12:21.478Z,93748.00
2023-04-02T01:13:21.487Z,93748.00
2023-04-02T01:14:21.456Z,93750.00
2023-04-02T01:15:21.480Z,93750.00
2023-04-02T01:16:21.506Z,93750.00
2023-04-02T01:17:21.444Z,93752.00
2023-04-02T01:18:21.436Z,93752.00
2023-04-02T01:19:21.449Z,93752.00
2023-04-02T01:20:21.446Z,93752.00
2023-04-02T01:21:21.460Z,93752.00
2023-04-02T01:22:21.490Z,93752.00
2023-04-02T01:23:21.459Z,93754.00
2023-04-02T01:24:21.476Z,93752.00
2023-04-02T01:25:21.451Z,93750.00
2023-04-02T01:26:21.463Z,93750.00
2023-04-02T01:27:21.479Z,93752.00
2023-04-02T01:28:21.468Z,93746.00
2023-04-02T01:29:21.473Z,93748.00
2023-04-02T01:30:21.491Z,93748.00
2023-04-02T01:31:21.488Z,93752.00
2023-04-02T01:32:21.495Z,93750.00
2023-04-02T01:33:21.487Z,93748.00
2023-04-02T01:34:21.725Z,93750.00
2023-04-02T01:35:21.467Z,93748.00
2023-04-02T01:36:21.487Z,93750.00
2023-04-02T01:37:21.449Z,93750.00
2023-04-02T01:38:21.453Z,93754.00
2023-04-02T01:39:21.456Z,93756.00
2023-04-02T01:40:21.467Z,93764.00
2023-04-02T01:41:21.442Z,93764.00
2023-04-02T01:42:21.469Z,93765.00
2023-04-02T01:43:21.468Z,93767.00
2023-04-02T01:44:21.504Z,93767.00
2023-04-02T01:45:21.443Z,93767.00
2023-04-02T01:46:21.450Z,93769.00
2023-04-02T01:47:21.434Z,93769.00
2023-04-02T01:48:21.450Z,93769.00
2023-04-02T01:49:21.445Z,93769.00
2023-04-02T01:50:21.440Z,93771.00
2023-04-02T01:51:21.503Z,93773.00
2023-04-02T01:52:21.438Z,93773.00
2023-04-02T01:53:21.442Z,93775.00
2023-04-02T01:54:21.488Z,93775.00
2023-04-02T01:55:21.450Z,93777.00
2023-04-02T01:56:21.440Z,93777.00
2023-04-02T01:57:21.528Z,93779.00
2023-04-02T01:58:21.459Z,93779.00
2023-04-02T01:59:21.455Z,93781.00
2023-04-02T02:00:21.445Z,93781.00
2023-04-02T02:01:21.586Z,93783.00
2023-04-02T02:02:21.522Z,93785.00
2023-04-02T02:03:21.522Z,93789.00
2023-04-02T02:04:21.431Z,93789.00
2023-04-02T02:05:21.505Z,93791.00
2023-04-02T02:06:21.445Z,93793.00
2023-04-02T02:07:21.442Z,93789.00
2023-04-02T02:08:21.522Z,93793.00
2023-04-02T02:09:21.453Z,93795.00
2023-04-02T02:10:21.471Z,93793.00
2023-04-02T02:11:21.588Z,93793.00
2023-04-02T02:12:21.453Z,93795.00
2023-04-02T02:13:21.464Z,93799.00
2023-04-02T02:14:21.460Z,93797.00
2023-04-02T02:15:21.456Z,93797.00
2023-04-02T02:16:21.466Z,93795.00
2023-04-02T02:17:21.574Z,93795.00
2023-04-02T02:18:21.464Z,93797.00
2023-04-02T02:19:21.478Z,93799.00
2023-04-02T02:20:21.477Z,93799.00
2023-04-02T02:21:21.563Z,93799.00
2023-04-02T02:22:21.509Z,93797.00
2023-04-02T02:23:21.527Z,93797.00
2023-04-02T02:24:21.494Z,93795.00
2023-04-02T02:25:21.483Z,93797.00
2023-04-02T02:26:21.472Z,93799.00
2023-04-02T02:27:21.483Z,93801.00
2023-04-02T02:28:21.472Z,93801.00
2023-04-02T02:29:21.493Z,93803.00
2023-04-02T02:30:21.499Z,93803.00
2023-04-02T02:31:21.566Z,93803.00
2023-04-02T02:32:21.562Z,93805.00
2023-04-02T02:33:21.548Z,93803.00
2023-04-02T02:34:21.542Z,93805.00
2023-04-02T02:35:21.551Z,93805.00
2023-04-02T02:36:21.587Z,93807.00
2023-04-02T02:37:21.551Z,93807.00
2023-04-02T02:38:21.556Z,93809.00
2023-04-02T02:39:21.554Z,93807.00
2023-04-02T02:40:21.584Z,93809.00
2023-04-02T02:41:21.628Z,93811.00
2023-04-02T02:42:21.577Z,93811.00
2023-04-02T02:43:21.598Z,93813.00
2023-04-02T02:44:21.608Z,93811.00
2023-04-02T02:45:21.605Z,93813.00
2023-04-02T02:46:21.638Z,93815.00
2023-04-02T02:47:21.624Z,93813.00
2023-04-02T02:48:21.616Z,93813.00
2023-04-02T02:49:21.608Z,93813.00
2023-04-02T02:50:21.601Z,93813.00
2023-04-02T02:51:21.677Z,93813.00
2023-04-02T02:52:21.625Z,93813.00
2023-04-02T02:53:21.607Z,93813.00
2023-04-02T02:54:21.630Z,93809.00
2023-04-02T02:55:21.630Z,93807.00
2023-04-02T02:56:21.632Z,93807.00
2023-04-02T02:57:21.680Z,93807.00
2023-04-02T02:58:21.622Z,93809.00
2023-04-02T02:59:21.619Z,93807.00
2023-04-02T03:00:21.642Z,93805.00
2023-04-02T03:01:21.882Z,93807.00
2023-04-02T03:02:21.720Z,93809.00
2023-04-02T03:03:21.823Z,93809.00
2023-04-02T03:04:21.688Z,93811.00
2023-04-02T03:05:21.692Z,93811.00
2023-04-02T03:06:21.694Z,93815.00
2023-04-02T03:07:21.723Z,93820.00
2023-04-02T03:08:21.713Z,93824.00
2023-04-02T03:09:21.722Z,93826.00
2023-04-02T03:10:21.722Z,93830.00
2023-04-02T03:11:21.818Z,93834.00
2023-04-02T03:12:21.729Z,93836.00
2023-04-02T03:13:21.766Z,93836.00
2023-04-02T03:14:21.777Z,93838.00
2023-04-02T03:15:21.775Z,93842.00
2023-04-02T03:16:21.856Z,93842.00
2023-04-02T03:17:21.816Z,93844.00
2023-04-02T03:18:21.805Z,93842.00
2023-04-02T03:19:21.804Z,93844.00
2023-04-02T03:20:21.866Z,93844.00
2023-04-02T03:21:21.951Z,93846.00
2023-04-02T03:22:21.849Z,93848.00
2023-04-02T03:23:21.891Z,93846.00
2023-04-02T03:24:21.893Z,93848.00
2023-04-02T03:25:21.886Z,93850.00
2023-04-02T03:26:21.906Z,93848.00
2023-04-02T03:27:21.917Z,93848.00
2023-04-02T03:28:21.894Z,93850.00
2023-04-02T03:29:21.901Z,93848.00
2023-04-02T03:30:21.919Z,93848.00
2023-04-02T03:31:21.951Z,93846.00
2023-04-02T03:32:21.904Z,93846.00
2023-04-02T03:33:21.911Z,93846.00
2023-04-02T03:34:21.925Z,93848.00
2023-04-02T03:35:21.907Z,93850.00
2023-04-02T03:36:22.065Z,93850.00
2023-04-02T03:37:21.931Z,93859.00
2023-04-02T03:38:21.943Z,93861.00
2023-04-02T03:39:21.921Z,93861.00
2023-04-02T03:40:21.916Z,93861.00
2023-04-02T03:41:21.987Z,93863.00
2023-04-02T03:42:21.925Z,93863.00
2023-04-02T03:43:21.940Z,93863.00
2023-04-02T03:44:21.930Z,93865.00
2023-04-02T03:45:21.907Z,93865.00
2023-04-02T03:46:21.972Z,93867.00
2023-04-02T03:47:21.969Z,93869.00
2023-04-02T03:48:21.926Z,93869.00
2023-04-02T03:49:21.928Z,93871.00
2023-04-02T03:50:21.909Z,93875.00
2023-04-02T03:51:21.992Z,93875.00
2023-04-02T03:52:21.928Z,93877.00
2023-04-02T03:53:21.926Z,93879.00
2023-04-02T03:54:21.946Z,93883.00
2023-04-02T03:55:21.943Z,93885.00
2023-04-02T03:56:21.948Z,93887.00
2023-04-02T03:57:21.999Z,93889.00
2023-04-02T03:58:21.949Z,93889.00
2023-04-02T03:59:21.935Z,93883.00
2023-04-02T04:00:21.935Z,93891.00
2023-04-02T04:01:21.955Z,93891.00
2023-04-02T04:02:22.005Z,93891.00
2023-04-02T04:03:21.962Z,93893.00
2023-04-02T04:04:22.016Z,93891.00
2023-04-02T04:05:21.963Z,93897.00
2023-04-02T04:06:21.963Z,93897.00
2023-04-02T04:07:21.980Z,93895.00
2023-04-02T04:08:21.984Z,93891.00
2023-04-02T04:09:21.975Z,93891.00
2023-04-02T04:10:21.963Z,93891.00
2023-04-02T04:11:22.053Z,93889.00
2023-04-02T04:12:22.000Z,93891.00
2023-04-02T04:13:21.998Z,93891.00
2023-04-02T04:14:22.013Z,93887.00
2023-04-02T04:15:22.007Z,93893.00
2023-04-02T04:16:22.103Z,93889.00
2023-04-02T04:17:22.009Z,93891.00
2023-04-02T04:18:22.022Z,93897.00
2023-04-02T04:19:22.022Z,93891.00
2023-04-02T04:20:22.119Z,93893.00
2023-04-02T04:21:22.127Z,93895.00
2023-04-02T04:22:22.037Z,93895.00
2023-04-02T04:23:22.036Z,93895.00
2023-04-02T04:24:22.018Z,93895.00
2023-04-02T04:25:22.034Z,93895.00
2023-04-02T04:26:22.045Z,93897.00
2023-04-02T04:27:22.074Z,93899.00
2023-04-02T04:28:22.086Z,93903.00
2023-04-02T04:29:22.079Z,93899.00
2023-04-02T04:30:22.126Z,93899.00
2023-04-02T04:31:24.612Z,93903.00
2023-04-02T04:32:22.097Z,93903.00
2023-04-02T04:33:22.094Z,93914.00
2023-04-02T04:34:22.101Z,93911.00
2023-04-02T04:35:22.073Z,93914.00
2023-04-02T04:36:22.074Z,93916.00
2023-04-02T04:37:22.065Z,93916.00
2023-04-02T04:38:22.063Z,93918.00
2023-04-02T04:39:22.050Z,93918.00
2023-04-02T04:40:22.038Z,93920.00
2023-04-02T04:41:22.068Z,93922.00
2023-04-02T04:42:22.051Z,93922.00
2023-04-02T04:43:22.053Z,93926.00
2023-04-02T04:44:22.056Z,93928.00
2023-04-02T04:45:22.029Z,93928.00
2023-04-02T04:46:22.112Z,93932.00
2023-04-02T04:47:22.004Z,93932.00
2023-04-02T04:48:22.418Z,93932.00
2023-04-02T04:49:21.990Z,93936.00
2023-04-02T04:50:22.001Z,93934.00
2023-04-02T04:51:21.981Z,93934.00
2023-04-02T04:52:21.964Z,93934.00
2023-04-02T04:53:21.972Z,93934.00
2023-04-02T04:54:21.967Z,93934.00
2023-04-02T04:55:21.963Z,93936.00
2023-04-02T04:56:21.934Z,93938.00
2023-04-02T04:57:21.983Z,93942.00
2023-04-02T04:58:21.928Z,93940.00
2023-04-02T04:59:21.912Z,93946.00
2023-04-02T05:00:21.932Z,93948.00
2023-04-02T05:01:21.934Z,93948.00
2023-04-02T05:02:21.912Z,93952.00
2023-04-02T05:03:21.903Z,93950.00
2023-04-02T05:04:21.934Z,93954.00
2023-04-02T05:05:21.910Z,93956.00
2023-04-02T05:06:21.858Z,93954.00
2023-04-02T05:07:21.871Z,93958.00
2023-04-02T05:08:21.857Z,93956.00
2023-04-02T05:09:21.856Z,93956.00
2023-04-02T05:10:21.887Z,93958.00
2023-04-02T05:11:21.829Z,93958.00
2023-04-02T05:12:21.838Z,93956.00
2023-04-02T05:13:21.837Z,93958.00
2023-04-02T05:14:21.819Z,93961.00
2023-04-02T05:15:21.807Z,93959.00
2023-04-02T05:16:21.823Z,93961.00
2023-04-02T05:17:21.833Z,93965.00
2023-04-02T05:18:21.810Z,93959.00
2023-04-02T05:19:21.772Z,93963.00
2023-04-02T05:20:21.842Z,93961.00
2023-04-02T05:21:21.749Z,93961.00
2023-04-02T05:22:21.770Z,93963.00
2023-04-02T05:23:21.753Z,93965.00
2023-04-02T05:24:21.731Z,93965.00
2023-04-02T05:25:21.726Z,93961.00
2023-04-02T05:26:21.728Z,93965.00
2023-04-02T05:27:21.725Z,93965.00
2023-04-02T05:28:21.720Z,93965.00
2023-04-02T05:29:21.688Z,93965.00
2023-04-02T05:30:21.807Z,93967.00
2023-04-02T05:31:21.747Z,93967.00
2023-04-02T05:32:21.669Z,93969.00
2023-04-02T05:33:21.689Z,93971.00
2023-04-02T05:34:21.652Z,93973.00
2023-04-02T05:35:21.654Z,93973.00
2023-04-02T05:36:21.731Z,93973.00
2023-04-02T05:37:21.684Z,93971.00
2023-04-02T05:38:21.664Z,93977.00
2023-04-02T05:39:21.641Z,93977.00
2023-04-02T05:40:21.664Z,93977.00
2023-04-02T05:41:21.628Z,93969.00
2023-04-02T05:42:21.618Z,93975.00
2023-04-02T05:43:21.600Z,93977.00
2023-04-02T05:44:21.610Z,93979.00
2023-04-02T05:45:21.596Z,93979.00
2023-04-02T05:46:21.612Z,93979.00
2023-04-02T05:47:21.624Z,93983.00
2023-04-02T05:48:21.597Z,93981.00
2023-04-02T05:49:21.572Z,93981.00
2023-04-02T05:50:21.579Z,93979.00
2023-04-02T05:51:21.536Z,93981.00
2023-04-02T05:52:21.537Z,93981.00
2023-04-02T05:53:21.560Z,93983.00
2023-04-02T05:54:21.535Z,93983.00
2023-04-02T05:55:21.536Z,93983.00
2023-04-02T05:56:21.500Z,93985.00
2023-04-02T05:57:23.121Z,93983.00
2023-04-02T05:59:22.481Z,93987.00
2023-04-02T06:00:21.495Z,93987.00
2023-04-02T06:01:21.490Z,93989.00
2023-04-02T06:02:21.490Z,93987.00
2023-04-02T06:03:21.525Z,93987.00
2023-04-02T06:04:21.458Z,93991.00
2023-04-02T06:05:21.446Z,93993.00
2023-04-02T06:06:21.432Z,93997.00
2023-04-02T06:07:21.422Z,93995.00
2023-04-02T06:08:21.420Z,93999.00
2023-04-02T06:09:21.430Z,93999.00
2023-04-02T06:10:22.857Z,94001.00
2023-04-02T06:11:21.410Z,94001.00
2023-04-02T06:12:21.410Z,94003.00
2023-04-02T06:13:21.377Z,94005.00
2023-04-02T06:14:21.404Z,94009.00
2023-04-02T06:15:21.398Z,94009.00
2023-04-02T06:16:21.382Z,94013.00
2023-04-02T06:17:21.398Z,94013.00
2023-04-02T06:18:21.365Z,94011.00
2023-04-02T06:19:21.958Z,94013.00
2023-04-02T06:20:21.357Z,94011.00
2023-04-02T06:21:21.319Z,94013.00
2023-04-02T06:22:21.322Z,94014.00
2023-04-02T06:23:21.363Z,94014.00
2023-04-02T06:24:21.292Z,94016.00
2023-04-02T06:25:21.301Z,94013.00
2023-04-02T06:26:21.298Z,94013.00
2023-04-02T06:27:21.315Z,94013.00
2023-04-02T06:28:21.326Z,94013.00
2023-04-02T06:29:21.251Z,94013.00
2023-04-02T06:30:21.261Z,94013.00
2023-04-02T06:31:21.312Z,94016.00
2023-04-02T06:32:21.246Z,94016.00
2023-04-02T06:33:21.279Z,94016.00
2023-04-02T06:34:21.208Z,94016.00
2023-04-02T06:35:21.216Z,94020.00
2023-04-02T06:36:21.261Z,94022.00
2023-04-02T06:37:21.208Z,94020.00
2023-04-02T06:38:21.184Z,94022.00
2023-04-02T06:39:21.182Z,94022.00
2023-04-02T06:40:21.180Z,94020.00
2023-04-02T06:41:21.155Z,94024.00
2023-04-02T06:42:21.174Z,94026.00
2023-04-02T06:43:21.155Z,94026.00
2023-04-02T06:44:21.162Z,94028.00
2023-04-02T06:45:21.124Z,94026.00
2023-04-02T06:46:21.167Z,94028.00
2023-04-02T06:47:21.108Z,94030.00
2023-04-02T06:48:21.122Z,94032.00
2023-04-02T06:49:21.110Z,94032.00
2023-04-02T06:50:21.086Z,94036.00
2023-04-02T06:51:21.079Z,94036.00
2023-04-02T06:52:21.080Z,94036.00
2023-04-02T06:53:21.086Z,94038.00
2023-04-02T06:54:21.098Z,94036.00
2023-04-02T06:55:21.102Z,94040.00
2023-04-02T06:56:21.047Z,94038.00
2023-04-02T06:57:21.076Z,94042.00
2023-04-02T06:58:21.044Z,94042.00
2023-04-02T06:59:21.033Z,94040.00
2023-04-02T07:00:21.020Z,94040.00
2023-04-02T07:01:21.044Z,94038.00
2023-04-02T07:02:21.028Z,94038.00
2023-04-02T07:03:21.019Z,94038.00
2023-04-02T07:04:21.036Z,94038.00
2023-04-02T07:05:21.033Z,94040.00
2023-04-02T07:06:21.049Z,94038.00
2023-04-02T07:07:21.056Z,94038.00
2023-04-02T07:08:21.039Z,94040.00
2023-04-02T07:09:21.037Z,94038.00
2023-04-02T07:10:21.075Z,94040.00
2023-04-02T07:11:21.128Z,94040.00
2023-04-02T07:12:21.094Z,94038.00
2023-04-02T07:13:21.135Z,94038.00
2023-04-02T07:14:21.184Z,94038.00
2023-04-02T07:15:21.245Z,94036.00
2023-04-02T07:16:21.407Z,94034.00
2023-04-02T07:17:21.424Z,94032.00
2023-04-02T07:18:21.454Z,94034.00
2023-04-02T07:19:21.512Z,94034.00
2023-04-02T07:20:21.565Z,94034.00
2023-04-02T07:21:21.603Z,94034.00
2023-04-02T07:22:21.634Z,94032.00
2023-04-02T07:23:21.707Z,94034.00
2023-04-02T07:24:21.768Z,94032.00
2023-04-02T07:25:21.805Z,94032.00
2023-04-02T07:26:21.889Z,94032.00
2023-04-02T07:27:21.939Z,94026.00
2023-04-02T07:28:22.871Z,94030.00
2023-04-02T07:29:22.037Z,94028.00
2023-04-02T07:30:22.097Z,94030.00
2023-04-02T07:31:22.164Z,94030.00
2023-04-02T07:32:22.192Z,94030.00
2023-04-02T07:33:22.245Z,94030.00
2023-04-02T07:34:22.272Z,94026.00
2023-04-02T07:35:22.330Z,94026.00
2023-04-02T07:36:22.416Z,94028.00
2023-04-02T07:37:22.426Z,94024.00
2023-04-02T07:38:22.459Z,94024.00
2023-04-02T07:39:22.553Z,94026.00
2023-04-02T07:40:22.572Z,94030.00
2023-04-02T07:41:22.581Z,94030.00
2023-04-02T07:42:22.640Z,94030.00
2023-04-02T07:43:22.712Z,94034.00
2023-04-02T07:44:22.737Z,94036.00
2023-04-02T07:45:22.759Z,94038.00
2023-04-02T07:46:22.838Z,94036.00
2023-04-02T07:47:22.878Z,94040.00
2023-04-02T07:48:22.877Z,94036.00
2023-04-02T07:49:22.891Z,94040.00
2023-04-02T07:50:23.018Z,94040.00
2023-04-02T07:51:22.971Z,94038.00
2023-04-02T07:52:22.990Z,94038.00
2023-04-02T07:53:23.009Z,94040.00
2023-04-02T07:54:23.005Z,94036.00
2023-04-02T07:55:23.018Z,94038.00
2023-04-02T07:56:23.047Z,94040.00
2023-04-02T07:57:23.095Z,94040.00
2023-04-02T07:58:23.083Z,94040.00
2023-04-02T07:59:23.073Z,94038.00
2023-04-02T08:00:23.083Z,94040.00
2023-04-02T08:01:23.088Z,94040.00
2023-04-02T08:02:23.295Z,94038.00
2023-04-02T08:03:23.196Z,94036.00
2023-04-02T08:04:23.354Z,94038.00
2023-04-02T08:05:23.154Z,94038.00
2023-04-02T08:06:23.137Z,94036.00
2023-04-02T08:07:23.152Z,94038.00
2023-04-02T08:08:23.171Z,94036.00
2023-04-02T08:09:23.156Z,94036.00
2023-04-02T08:10:23.207Z,94036.00
2023-04-02T08:11:23.235Z,94038.00
2023-04-02T08:12:23.220Z,94040.00
2023-04-02T08:13:23.211Z,94040.00
2023-04-02T08:14:23.216Z,94038.00
2023-04-02T08:15:23.200Z,94042.00
2023-04-02T08:16:23.252Z,94044.00
2023-04-02T08:17:23.338Z,94042.00
2023-04-02T08:18:23.210Z,94042.00
2023-04-02T08:19:23.227Z,94044.00
2023-04-02T08:20:23.225Z,94040.00
2023-04-02T08:21:23.248Z,94040.00
2023-04-02T08:22:23.252Z,94038.00
2023-04-02T08:23:23.257Z,94038.00
2023-04-02T08:24:23.285Z,94036.00
2023-04-02T08:25:23.287Z,94036.00
2023-04-02T08:26:23.318Z,94036.00
2023-04-02T08:27:23.347Z,94038.00
2023-04-02T08:28:23.412Z,94038.00
2023-04-02T08:29:23.470Z,94036.00
2023-04-02T08:30:23.514Z,94032.00
2023-04-02T08:31:23.669Z,94036.00
2023-04-02T08:32:23.640Z,94036.00
2023-04-02T08:33:23.720Z,94032.00
2023-04-02T08:34:23.752Z,94036.00
2023-04-02T08:35:23.801Z,94032.00
2023-04-02T08:36:23.875Z,94032.00
2023-04-02T08:37:23.918Z,94034.00
2023-04-02T08:38:23.961Z,94034.00
2023-04-02T08:39:24.015Z,94030.00
2023-04-02T08:40:24.099Z,94026.00
2023-04-02T08:41:24.124Z,94032.00
2023-04-02T08:42:24.185Z,94032.00
2023-04-02T08:43:25.112Z,94032.00
2023-04-02T08:44:24.264Z,94032.00
2023-04-02T08:45:25.614Z,94030.00
2023-04-02T08:46:24.347Z,94026.00
2023-04-02T08:47:24.399Z,94028.00
2023-04-02T08:48:24.428Z,94022.00
2023-04-02T08:49:24.448Z,94026.00
2023-04-02T08:50:24.481Z,94026.00
2023-04-02T08:51:24.519Z,94026.00
2023-04-02T08:52:24.574Z,94024.00
2023-04-02T08:53:24.601Z,94024.00
2023-04-02T08:54:24.608Z,94024.00
2023-04-02T08:55:24.631Z,94024.00
2023-04-02T08:56:24.660Z,94022.00
2023-04-02T08:57:24.744Z,94022.00
2023-04-02T08:58:24.747Z,94022.00
2023-04-02T08:59:24.790Z,94022.00
2023-04-02T09:00:24.817Z,94022.00
2023-04-02T09:01:24.879Z,94020.00
2023-04-02T09:02:24.952Z,94022.00
2023-04-02T09:03:24.947Z,94022.00
2023-04-02T09:04:25.065Z,94026.00
2023-04-02T09:05:25.058Z,94026.00
2023-04-02T09:06:25.108Z,94024.00
2023-04-02T09:07:25.155Z,94026.00
2023-04-02T09:08:25.200Z,94026.00
2023-04-02T09:09:25.288Z,94026.00
2023-04-02T09:10:25.314Z,94028.00
2023-04-02T09:11:25.402Z,94032.00
2023-04-02T09:12:25.439Z,94028.00
2023-04-02T09:13:25.486Z,94028.00
2023-04-02T09:14:25.545Z,94032.00
2023-04-02T09:15:25.615Z,94030.00
2023-04-02T09:16:25.681Z,94028.00
2023-04-02T09:17:25.739Z,94028.00
2023-04-02T09:18:26.547Z,94032.00
2023-04-02T09:19:25.802Z,94034.00
2023-04-02T09:20:25.850Z,94034.00
2023-04-02T09:21:25.870Z,94034.00
2023-04-02T09:22:25.929Z,94030.00
2023-04-02T09:23:25.990Z,94030.00
2023-04-02T09:24:26.561Z,94030.00
2023-04-02T09:25:26.068Z,94032.00
2023-04-02T09:26:26.084Z,94032.00
2023-04-02T09:27:26.146Z,94028.00
2023-04-02T09:28:26.184Z,94028.00
2023-04-02T09:29:26.243Z,94034.00
2023-04-02T09:30:26.319Z,94030.00
2023-04-02T09:31:26.368Z,94030.00
2023-04-02T09:32:26.421Z,94032.00
2023-04-02T09:33:26.489Z,94034.00
2023-04-02T09:34:26.510Z,94034.00
2023-04-02T09:35:27.139Z,94034.00
2023-04-02T09:36:26.669Z,94036.00
2023-04-02T09:37:26.675Z,94038.00
2023-04-02T09:38:26.730Z,94038.00
2023-04-02T09:39:26.801Z,94036.00
2023-04-02T09:40:26.847Z,94038.00
2023-04-02T09:41:26.899Z,94038.00
2023-04-02T09:42:26.953Z,94036.00
2023-04-02T09:43:27.034Z,94038.00
2023-04-02T09:44:27.079Z,94038.00
2023-04-02T09:45:27.162Z,94038.00
2023-04-02T09:46:27.226Z,94034.00
2023-04-02T09:47:27.323Z,94038.00
2023-04-02T09:48:27.324Z,94036.00
2023-04-02T09:49:27.388Z,94034.00
2023-04-02T09:50:27.432Z,94036.00
2023-04-02T09:51:27.487Z,94034.00
2023-04-02T09:52:27.582Z,94034.00
2023-04-02T09:53:27.585Z,94032.00
2023-04-02T09:54:27.654Z,94036.00
2023-04-02T09:55:27.713Z,94036.00
2023-04-02T09:56:27.762Z,94038.00
2023-04-02T09:57:27.847Z,94038.00
2023-04-02T09:58:27.869Z,94038.00
2023-04-02T09:59:27.943Z,94042.00
2023-04-02T10:01:28.029Z,94040.00
2023-04-02T10:02:28.088Z,94042.00
2023-04-02T10:03:28.062Z,94040.00
2023-04-02T10:04:28.114Z,94042.00
2023-04-02T10:05:39.987Z,94042.00
2023-04-02T10:06:29.073Z,94042.00
2023-04-02T10:07:28.050Z,94044.00
2023-04-02T10:08:28.068Z,94042.00
2023-04-02T10:09:28.028Z,94042.00
2023-04-02T10:10:28.049Z,94040.00
2023-04-02T10:11:36.639Z,94038.00
2023-04-02T10:12:29.016Z,94040.00
2023-04-02T10:13:28.000Z,94038.00
2023-04-02T10:14:28.007Z,94040.00
2023-04-02T10:15:27.987Z,94038.00
2023-04-02T10:16:28.068Z,94040.00
2023-04-02T10:17:27.989Z,94040.00
2023-04-02T10:18:27.969Z,94040.00
2023-04-02T10:19:27.968Z,94040.00
2023-04-02T10:20:28.521Z,94040.00
2023-04-02T10:21:27.943Z,94040.00
2023-04-02T10:22:27.950Z,94038.00
2023-04-02T10:23:27.950Z,94040.00
2023-04-02T10:24:27.949Z,94042.00
2023-04-02T10:25:27.940Z,94038.00
2023-04-02T10:26:27.926Z,94040.00
2023-04-02T10:27:27.936Z,94038.00
2023-04-02T10:28:27.893Z,94042.00
2023-04-02T10:29:27.891Z,94040.00
2023-04-02T10:30:27.906Z,94038.00
2023-04-02T10:31:28.024Z,94040.00
2023-04-02T10:32:27.923Z,94038.00
2023-04-02T10:33:27.910Z,94038.00
2023-04-02T10:34:27.925Z,94036.00
2023-04-02T10:35:27.978Z,94034.00
2023-04-02T10:36:27.934Z,94034.00
2023-04-02T10:37:27.964Z,94032.00
2023-04-02T10:38:27.996Z,94034.00
2023-04-02T10:39:28.023Z,94032.00
2023-04-02T10:40:28.029Z,94034.00
2023-04-02T10:41:28.050Z,94030.00
2023-04-02T10:42:28.119Z,94034.00
2023-04-02T10:43:28.198Z,94034.00
2023-04-02T10:44:28.236Z,94034.00
2023-04-02T10:45:28.263Z,94034.00
2023-04-02T10:46:28.358Z,94032.00
2023-04-02T10:47:28.396Z,94032.00
2023-04-02T10:48:28.410Z,94034.00
2023-04-02T10:49:28.495Z,94032.00
2023-04-02T10:50:28.520Z,94040.00
2023-04-02T10:51:28.577Z,94040.00
2023-04-02T10:52:28.652Z,94044.00
2023-04-02T10:53:28.704Z,94042.00
2023-04-02T10:54:28.714Z,94044.00
2023-04-02T10:55:28.773Z,94042.00
2023-04-02T10:56:35.178Z,94044.00
2023-04-02T10:57:29.843Z,94044.00
2023-04-02T10:58:28.799Z,94046.00
2023-04-02T10:59:28.777Z,94046.00
2023-04-02T11:00:28.778Z,94048.00
2023-04-02T11:01:28.800Z,94050.00
2023-04-02T11:02:28.921Z,94054.00
2023-04-02T11:03:28.855Z,94052.00
2023-04-02T11:04:28.742Z,94052.00
2023-04-02T11:05:28.726Z,94056.00
2023-04-02T11:06:28.747Z,94054.00
2023-04-02T11:07:28.718Z,94054.00
2023-04-02T11:08:28.751Z,94054.00
2023-04-02T11:09:28.770Z,94054.00
2023-04-02T11:10:28.765Z,94056.00
2023-04-02T11:11:28.762Z,94052.00
2023-04-02T11:12:28.762Z,94050.00
2023-04-02T11:13:28.776Z,94052.00
2023-04-02T11:14:28.837Z,94054.00
2023-04-02T11:15:28.959Z,94050.00
2023-04-02T11:16:29.040Z,94050.00
2023-04-02T11:17:28.965Z,94052.00
2023-04-02T11:18:28.961Z,94054.00
2023-04-02T11:19:28.936Z,94056.00
2023-04-02T11:20:29.053Z,94054.00
2023-04-02T11:21:29.047Z,94056.00
2023-04-02T11:22:29.056Z,94060.00
2023-04-02T11:23:29.050Z,94061.00
2023-04-02T11:24:29.062Z,94061.00
2023-04-02T11:25:29.067Z,94065.00
2023-04-02T11:26:29.081Z,94063.00
2023-04-02T11:27:29.090Z,94063.00
2023-04-02T11:28:29.089Z,94065.00
2023-04-02T11:29:29.099Z,94063.00
2023-04-02T11:30:29.158Z,94063.00
2023-04-02T11:31:29.146Z,94065.00
2023-04-02T11:32:29.198Z,94069.00
2023-04-02T11:33:36.636Z,94071.00
2023-04-02T11:34:30.171Z,94071.00
2023-04-02T11:35:29.164Z,94075.00
2023-04-02T11:36:29.136Z,94079.00
2023-04-02T11:37:29.127Z,94079.00
2023-04-02T11:38:29.117Z,94083.00
2023-04-02T11:39:29.100Z,94085.00
2023-04-02T11:40:29.094Z,94081.00
2023-04-02T11:41:29.109Z,94081.00
2023-04-02T11:42:29.081Z,94083.00
2023-04-02T11:43:29.071Z,94087.00
2023-04-02T11:44:29.096Z,94087.00
2023-04-02T11:45:29.066Z,94093.00
2023-04-02T11:46:29.074Z,94095.00